sensor_id;sensor_type;location;lat;lon;timestamp;P1;durP1;ratioP1;P2;durP2;ratioP2
30462;SDS011;17256;43.618;25.336;2023-05-14T00:01:04;9.73;;;8.40;;
30462;SDS011;17256;43.618;25.336;2023-05-14T00:03:52;9.37;;;7.87;;
30462;SDS011;17256;43.618;25.336;2023-05-14T00:06:24;12.10;;;9.17;;
30462;SDS011;17256;43.618;25.336;2023-05-14T00:08:53;12.20;;;7.73;;
30462;SDS011;17256;43.618;25.336;2023-05-14T00:14:43;12.97;;;9.77;;
30462;SDS011;17256;43.618;25.336;2023-05-14T00:17:12;16.83;;;11.03;;
30462;SDS011;17256;43.618;25.336;2023-05-14T00:19:45;11.30;;;8.70;;
30462;SDS011;17256;43.618;25.336;2023-05-14T00:22:17;10.67;;;9.57;;
30462;SDS011;17256;43.618;25.336;2023-05-14T00:24:58;15.23;;;10.23;;
30462;SDS011;17256;43.618;25.336;2023-05-14T00:27:34;15.93;;;10.90;;
30462;SDS011;17256;43.618;25.336;2023-05-14T00:30:08;11.70;;;9.70;;
30462;SDS011;17256;43.618;25.336;2023-05-14T00:32:46;12.63;;;10.23;;
30462;SDS011;17256;43.618;25.336;2023-05-14T00:35:26;15.07;;;10.33;;
30462;SDS011;17256;43.618;25.336;2023-05-14T00:38:05;15.97;;;12.07;;
30462;SDS011;17256;43.618;25.336;2023-05-14T00:40:33;17.00;;;11.43;;
30462;SDS011;17256;43.618;25.336;2023-05-14T00:43:10;18.67;;;11.87;;
30462;SDS011;17256;43.618;25.336;2023-05-14T00:46:00;15.97;;;11.63;;
30462;SDS011;17256;43.618;25.336;2023-05-14T00:49:06;19.07;;;10.63;;
30462;SDS011;17256;43.618;25.336;2023-05-14T00:51:41;16.33;;;11.13;;
30462;SDS011;17256;43.618;25.336;2023-05-14T00:54:16;14.77;;;10.77;;
30462;SDS011;17256;43.618;25.336;2023-05-14T00:56:51;12.93;;;9.40;;
30462;SDS011;17256;43.618;25.336;2023-05-14T00:59:27;11.07;;;9.67;;
30462;SDS011;17256;43.618;25.336;2023-05-14T01:01:56;17.83;;;11.07;;
30462;SDS011;17256;43.618;25.336;2023-05-14T01:04:43;15.50;;;11.43;;
30462;SDS011;17256;43.618;25.336;2023-05-14T01:07:36;16.40;;;12.13;;
30462;SDS011;17256;43.618;25.336;2023-05-14T01:10:18;16.83;;;11.30;;
30462;SDS011;17256;43.618;25.336;2023-05-14T01:13:03;14.60;;;10.93;;
30462;SDS011;17256;43.618;25.336;2023-05-14T01:15:49;12.17;;;10.00;;
30462;SDS011;17256;43.618;25.336;2023-05-14T01:18:42;10.77;;;9.03;;
30462;SDS011;17256;43.618;25.336;2023-05-14T01:21:38;13.20;;;10.07;;
30462;SDS011;17256;43.618;25.336;2023-05-14T01:24:14;15.87;;;10.10;;
30462;SDS011;17256;43.618;25.336;2023-05-14T01:27:00;15.87;;;11.07;;
30462;SDS011;17256;43.618;25.336;2023-05-14T01:29:58;13.50;;;9.83;;
30462;SDS011;17256;43.618;25.336;2023-05-14T01:40:16;11.13;;;9.10;;
30462;SDS011;17256;43.618;25.336;2023-05-14T01:43:04;11.03;;;9.03;;
30462;SDS011;17256;43.618;25.336;2023-05-14T01:45:35;11.87;;;8.53;;
30462;SDS011;17256;43.618;25.336;2023-05-14T01:53:57;6.90;;;6.30;;
30462;SDS011;17256;43.618;25.336;2023-05-14T01:56:30;6.20;;;5.70;;
30462;SDS011;17256;43.618;25.336;2023-05-14T01:59:33;7.60;;;6.80;;
30462;SDS011;17256;43.618;25.336;2023-05-14T02:02:32;8.03;;;5.87;;
30462;SDS011;17256;43.618;25.336;2023-05-14T02:05:09;6.27;;;5.63;;
30462;SDS011;17256;43.618;25.336;2023-05-14T02:08:13;7.30;;;6.30;;
30462;SDS011;17256;43.618;25.336;2023-05-14T02:11:37;5.83;;;5.33;;
30462;SDS011;17256;43.618;25.336;2023-05-14T02:14:18;6.43;;;5.80;;
30462;SDS011;17256;43.618;25.336;2023-05-14T02:17:04;6.10;;;4.93;;
30462;SDS011;17256;43.618;25.336;2023-05-14T02:19:44;6.00;;;5.40;;
30462;SDS011;17256;43.618;25.336;2023-05-14T02:22:23;6.80;;;6.20;;
30462;SDS011;17256;43.618;25.336;2023-05-14T02:24:56;7.50;;;5.43;;
30462;SDS011;17256;43.618;25.336;2023-05-14T02:27:26;6.33;;;5.73;;
30462;SDS011;17256;43.618;25.336;2023-05-14T02:30:03;6.37;;;5.70;;
30462;SDS011;17256;43.618;25.336;2023-05-14T02:33:13;5.77;;;5.20;;
30462;SDS011;17256;43.618;25.336;2023-05-14T02:35:43;6.13;;;4.80;;
30462;SDS011;17256;43.618;25.336;2023-05-14T02:38:35;6.27;;;5.67;;
30462;SDS011;17256;43.618;25.336;2023-05-14T02:41:15;7.30;;;5.57;;
30462;SDS011;17256;43.618;25.336;2023-05-14T02:43:51;6.97;;;6.27;;
30462;SDS011;17256;43.618;25.336;2023-05-14T02:46:33;6.50;;;5.90;;
30462;SDS011;17256;43.618;25.336;2023-05-14T02:49:02;9.00;;;7.03;;
30462;SDS011;17256;43.618;25.336;2023-05-14T02:51:44;7.43;;;6.47;;
30462;SDS011;17256;43.618;25.336;2023-05-14T02:54:17;10.73;;;6.93;;
30462;SDS011;17256;43.618;25.336;2023-05-14T02:56:46;8.33;;;7.00;;
30462;SDS011;17256;43.618;25.336;2023-05-14T02:59:14;6.73;;;6.07;;
30462;SDS011;17256;43.618;25.336;2023-05-14T03:01:50;7.60;;;6.17;;
30462;SDS011;17256;43.618;25.336;2023-05-14T03:04:23;6.63;;;6.00;;
30462;SDS011;17256;43.618;25.336;2023-05-14T03:07:03;7.20;;;6.50;;
30462;SDS011;17256;43.618;25.336;2023-05-14T03:09:30;7.30;;;6.70;;
30462;SDS011;17256;43.618;25.336;2023-05-14T03:11:56;7.03;;;6.33;;
30462;SDS011;17256;43.618;25.336;2023-05-14T03:14:27;6.93;;;6.33;;
30462;SDS011;17256;43.618;25.336;2023-05-14T03:16:59;6.43;;;5.83;;
30462;SDS011;17256;43.618;25.336;2023-05-14T03:19:28;6.57;;;5.97;;
30462;SDS011;17256;43.618;25.336;2023-05-14T03:22:01;8.63;;;6.00;;
30462;SDS011;17256;43.618;25.336;2023-05-14T03:24:27;6.97;;;6.27;;
30462;SDS011;17256;43.618;25.336;2023-05-14T03:27:00;6.83;;;6.30;;
30462;SDS011;17256;43.618;25.336;2023-05-14T03:29:28;7.30;;;6.57;;
30462;SDS011;17256;43.618;25.336;2023-05-14T03:31:57;8.50;;;5.80;;
30462;SDS011;17256;43.618;25.336;2023-05-14T03:34:22;6.93;;;5.97;;
30462;SDS011;17256;43.618;25.336;2023-05-14T03:36:49;7.03;;;6.43;;
30462;SDS011;17256;43.618;25.336;2023-05-14T03:39:15;7.90;;;5.73;;
30462;SDS011;17256;43.618;25.336;2023-05-14T03:41:44;10.33;;;6.80;;
30462;SDS011;17256;43.618;25.336;2023-05-14T03:44:13;6.63;;;6.03;;
30462;SDS011;17256;43.618;25.336;2023-05-14T03:46:39;7.30;;;6.53;;
30462;SDS011;17256;43.618;25.336;2023-05-14T03:49:17;7.40;;;6.10;;
30462;SDS011;17256;43.618;25.336;2023-05-14T03:51:57;8.83;;;6.43;;
30462;SDS011;17256;43.618;25.336;2023-05-14T03:54:27;7.10;;;6.40;;
30462;SDS011;17256;43.618;25.336;2023-05-14T03:56:55;6.20;;;5.53;;
30462;SDS011;17256;43.618;25.336;2023-05-14T03:59:23;7.50;;;6.60;;
30462;SDS011;17256;43.618;25.336;2023-05-14T04:01:53;6.20;;;5.60;;
30462;SDS011;17256;43.618;25.336;2023-05-14T04:04:21;6.43;;;5.83;;
30462;SDS011;17256;43.618;25.336;2023-05-14T04:06:49;6.37;;;5.73;;
30462;SDS011;17256;43.618;25.336;2023-05-14T04:09:16;8.17;;;6.57;;
30462;SDS011;17256;43.618;25.336;2023-05-14T04:11:45;7.17;;;6.57;;
30462;SDS011;17256;43.618;25.336;2023-05-14T04:14:13;7.33;;;6.63;;
30462;SDS011;17256;43.618;25.336;2023-05-14T04:16:40;7.00;;;6.13;;
30462;SDS011;17256;43.618;25.336;2023-05-14T04:19:10;7.07;;;6.33;;
30462;SDS011;17256;43.618;25.336;2023-05-14T04:21:38;8.33;;;6.83;;
30462;SDS011;17256;43.618;25.336;2023-05-14T04:24:27;8.87;;;7.80;;
30462;SDS011;17256;43.618;25.336;2023-05-14T04:26:59;9.77;;;6.53;;
30462;SDS011;17256;43.618;25.336;2023-05-14T04:29:26;6.77;;;5.63;;
30462;SDS011;17256;43.618;25.336;2023-05-14T04:32:10;6.00;;;5.40;;
30462;SDS011;17256;43.618;25.336;2023-05-14T04:34:49;10.37;;;6.47;;
30462;SDS011;17256;43.618;25.336;2023-05-14T04:37:17;7.23;;;6.30;;
30462;SDS011;17256;43.618;25.336;2023-05-14T04:39:46;6.60;;;5.87;;
30462;SDS011;17256;43.618;25.336;2023-05-14T04:42:16;6.53;;;5.93;;
30462;SDS011;17256;43.618;25.336;2023-05-14T04:44:44;8.97;;;6.67;;
30462;SDS011;17256;43.618;25.336;2023-05-14T04:47:11;7.90;;;6.40;;
30462;SDS011;17256;43.618;25.336;2023-05-14T04:49:38;8.07;;;6.07;;
30462;SDS011;17256;43.618;25.336;2023-05-14T04:52:05;6.90;;;6.30;;
30462;SDS011;17256;43.618;25.336;2023-05-14T04:54:32;6.43;;;5.50;;
30462;SDS011;17256;43.618;25.336;2023-05-14T04:57:00;5.73;;;5.13;;
30462;SDS011;17256;43.618;25.336;2023-05-14T04:59:30;4.90;;;4.50;;
30462;SDS011;17256;43.618;25.336;2023-05-14T05:02:09;5.37;;;4.87;;
30462;SDS011;17256;43.618;25.336;2023-05-14T05:04:36;5.17;;;4.63;;
30462;SDS011;17256;43.618;25.336;2023-05-14T05:07:19;4.60;;;4.07;;
30462;SDS011;17256;43.618;25.336;2023-05-14T05:09:48;4.10;;;3.70;;
30462;SDS011;17256;43.618;25.336;2023-05-14T05:12:15;5.70;;;5.10;;
30462;SDS011;17256;43.618;25.336;2023-05-14T05:14:41;6.53;;;5.63;;
30462;SDS011;17256;43.618;25.336;2023-05-14T05:17:07;5.27;;;4.77;;
30462;SDS011;17256;43.618;25.336;2023-05-14T05:19:38;9.13;;;6.50;;
30462;SDS011;17256;43.618;25.336;2023-05-14T05:22:06;6.93;;;5.70;;
30462;SDS011;17256;43.618;25.336;2023-05-14T05:24:34;6.87;;;6.17;;
30462;SDS011;17256;43.618;25.336;2023-05-14T05:27:14;9.67;;;6.77;;
30462;SDS011;17256;43.618;25.336;2023-05-14T05:29:52;11.70;;;6.30;;
30462;SDS011;17256;43.618;25.336;2023-05-14T05:32:19;9.10;;;6.03;;
30462;SDS011;17256;43.618;25.336;2023-05-14T05:34:55;6.87;;;4.63;;
30462;SDS011;17256;43.618;25.336;2023-05-14T05:37:25;5.50;;;4.73;;
30462;SDS011;17256;43.618;25.336;2023-05-14T05:39:51;4.67;;;4.17;;
30462;SDS011;17256;43.618;25.336;2023-05-14T05:42:34;3.97;;;3.57;;
30462;SDS011;17256;43.618;25.336;2023-05-14T05:45:06;4.47;;;4.00;;
30462;SDS011;17256;43.618;25.336;2023-05-14T05:47:38;10.27;;;4.27;;
30462;SDS011;17256;43.618;25.336;2023-05-14T05:50:08;5.20;;;4.17;;
30462;SDS011;17256;43.618;25.336;2023-05-14T05:52:34;4.97;;;3.63;;
30462;SDS011;17256;43.618;25.336;2023-05-14T05:55:01;4.17;;;3.77;;
30462;SDS011;17256;43.618;25.336;2023-05-14T05:57:29;6.10;;;4.10;;
30462;SDS011;17256;43.618;25.336;2023-05-14T05:59:59;5.50;;;5.00;;
30462;SDS011;17256;43.618;25.336;2023-05-14T06:02:49;7.27;;;5.83;;
30462;SDS011;17256;43.618;25.336;2023-05-14T06:05:16;8.97;;;6.60;;
30462;SDS011;17256;43.618;25.336;2023-05-14T06:07:43;8.70;;;6.87;;
30462;SDS011;17256;43.618;25.336;2023-05-14T06:10:11;5.43;;;4.90;;
30462;SDS011;17256;43.618;25.336;2023-05-14T06:12:38;7.17;;;4.67;;
30462;SDS011;17256;43.618;25.336;2023-05-14T06:15:05;9.00;;;6.77;;
30462;SDS011;17256;43.618;25.336;2023-05-14T06:17:32;6.60;;;4.83;;
30462;SDS011;17256;43.618;25.336;2023-05-14T06:20:00;5.67;;;5.07;;
30462;SDS011;17256;43.618;25.336;2023-05-14T06:22:27;5.57;;;5.07;;
30462;SDS011;17256;43.618;25.336;2023-05-14T06:24:56;6.50;;;4.33;;
30462;SDS011;17256;43.618;25.336;2023-05-14T06:27:22;5.73;;;4.43;;
30462;SDS011;17256;43.618;25.336;2023-05-14T06:29:49;7.70;;;4.47;;
30462;SDS011;17256;43.618;25.336;2023-05-14T06:32:18;4.27;;;3.60;;
30462;SDS011;17256;43.618;25.336;2023-05-14T06:34:46;6.67;;;4.93;;
30462;SDS011;17256;43.618;25.336;2023-05-14T06:37:12;5.80;;;4.27;;
30462;SDS011;17256;43.618;25.336;2023-05-14T06:39:38;4.90;;;4.00;;
30462;SDS011;17256;43.618;25.336;2023-05-14T06:42:04;4.13;;;3.70;;
30462;SDS011;17256;43.618;25.336;2023-05-14T06:44:39;6.30;;;4.33;;
30462;SDS011;17256;43.618;25.336;2023-05-14T06:47:05;6.23;;;4.57;;
30462;SDS011;17256;43.618;25.336;2023-05-14T06:49:33;4.47;;;4.07;;
30462;SDS011;17256;43.618;25.336;2023-05-14T06:51:59;3.93;;;3.53;;
30462;SDS011;17256;43.618;25.336;2023-05-14T06:54:24;4.67;;;4.17;;
30462;SDS011;17256;43.618;25.336;2023-05-14T06:56:50;5.13;;;4.03;;
30462;SDS011;17256;43.618;25.336;2023-05-14T06:59:16;5.00;;;4.60;;
30462;SDS011;17256;43.618;25.336;2023-05-14T07:01:42;6.67;;;4.30;;
30462;SDS011;17256;43.618;25.336;2023-05-14T07:04:11;7.70;;;4.67;;
30462;SDS011;17256;43.618;25.336;2023-05-14T07:06:37;6.27;;;5.23;;
30462;SDS011;17256;43.618;25.336;2023-05-14T07:09:03;5.43;;;4.63;;
30462;SDS011;17256;43.618;25.336;2023-05-14T07:11:32;7.10;;;4.63;;
30462;SDS011;17256;43.618;25.336;2023-05-14T07:14:28;6.03;;;4.40;;
30462;SDS011;17256;43.618;25.336;2023-05-14T07:17:02;5.50;;;4.23;;
30462;SDS011;17256;43.618;25.336;2023-05-14T07:19:40;4.70;;;4.10;;
30462;SDS011;17256;43.618;25.336;2023-05-14T07:22:10;4.17;;;3.80;;
30462;SDS011;17256;43.618;25.336;2023-05-14T07:24:40;7.00;;;4.77;;
30462;SDS011;17256;43.618;25.336;2023-05-14T07:27:06;4.87;;;4.10;;
30462;SDS011;17256;43.618;25.336;2023-05-14T07:29:55;4.40;;;4.00;;
30462;SDS011;17256;43.618;25.336;2023-05-14T07:32:28;4.20;;;3.80;;
30462;SDS011;17256;43.618;25.336;2023-05-14T07:34:54;5.83;;;4.40;;
30462;SDS011;17256;43.618;25.336;2023-05-14T07:40:42;5.37;;;3.70;;
30462;SDS011;17256;43.618;25.336;2023-05-14T07:43:10;3.93;;;3.63;;
30462;SDS011;17256;43.618;25.336;2023-05-14T07:45:41;4.03;;;3.47;;
30462;SDS011;17256;43.618;25.336;2023-05-14T07:57:29;4.30;;;3.90;;
30462;SDS011;17256;43.618;25.336;2023-05-14T08:00:12;4.70;;;3.23;;
30462;SDS011;17256;43.618;25.336;2023-05-14T08:03:10;6.07;;;3.37;;
30462;SDS011;17256;43.618;25.336;2023-05-14T08:09:01;3.97;;;3.00;;
30462;SDS011;17256;43.618;25.336;2023-05-14T08:11:34;2.67;;;2.47;;
30462;SDS011;17256;43.618;25.336;2023-05-14T08:14:00;3.97;;;3.47;;
30462;SDS011;17256;43.618;25.336;2023-05-14T08:16:26;3.40;;;3.10;;
30462;SDS011;17256;43.618;25.336;2023-05-14T08:18:51;3.10;;;2.70;;
30462;SDS011;17256;43.618;25.336;2023-05-14T08:25:24;6.17;;;3.67;;
30462;SDS011;17256;43.618;25.336;2023-05-14T08:34:52;3.90;;;2.80;;
30462;SDS011;17256;43.618;25.336;2023-05-14T08:37:21;2.93;;;2.63;;
30462;SDS011;17256;43.618;25.336;2023-05-14T08:39:51;2.90;;;2.60;;
30462;SDS011;17256;43.618;25.336;2023-05-14T08:42:37;3.27;;;2.70;;
30462;SDS011;17256;43.618;25.336;2023-05-14T08:47:57;3.00;;;2.30;;
30462;SDS011;17256;43.618;25.336;2023-05-14T08:50:27;4.53;;;3.30;;
30462;SDS011;17256;43.618;25.336;2023-05-14T08:52:57;2.93;;;2.63;;
30462;SDS011;17256;43.618;25.336;2023-05-14T08:55:27;4.37;;;2.90;;
30462;SDS011;17256;43.618;25.336;2023-05-14T08:58:00;6.87;;;3.53;;
30462;SDS011;17256;43.618;25.336;2023-05-14T09:00:29;4.07;;;3.67;;
30462;SDS011;17256;43.618;25.336;2023-05-14T09:03:00;4.73;;;3.03;;
30462;SDS011;17256;43.618;25.336;2023-05-14T09:06:49;3.47;;;3.17;;
30462;SDS011;17256;43.618;25.336;2023-05-14T09:09:40;5.07;;;3.30;;
30462;SDS011;17256;43.618;25.336;2023-05-14T09:12:12;3.57;;;3.23;;
30462;SDS011;17256;43.618;25.336;2023-05-14T09:14:42;4.40;;;3.23;;
30462;SDS011;17256;43.618;25.336;2023-05-14T09:21:02;2.30;;;2.20;;
30462;SDS011;17256;43.618;25.336;2023-05-14T09:23:30;3.17;;;2.87;;
30462;SDS011;17256;43.618;25.336;2023-05-14T09:25:58;3.23;;;2.93;;
30462;SDS011;17256;43.618;25.336;2023-05-14T09:28:23;5.20;;;3.30;;
30462;SDS011;17256;43.618;25.336;2023-05-14T09:30:52;3.80;;;2.53;;
30462;SDS011;17256;43.618;25.336;2023-05-14T09:44:39;5.30;;;3.37;;
30462;SDS011;17256;43.618;25.336;2023-05-14T09:47:41;3.00;;;2.73;;
30462;SDS011;17256;43.618;25.336;2023-05-14T09:58:04;5.73;;;2.83;;
30462;SDS011;17256;43.618;25.336;2023-05-14T10:00:30;4.27;;;2.97;;
30462;SDS011;17256;43.618;25.336;2023-05-14T10:02:57;3.03;;;2.50;;
30462;SDS011;17256;43.618;25.336;2023-05-14T10:05:26;3.40;;;2.63;;
30462;SDS011;17256;43.618;25.336;2023-05-14T10:07:55;3.20;;;2.90;;
30462;SDS011;17256;43.618;25.336;2023-05-14T10:10:29;4.37;;;3.03;;
30462;SDS011;17256;43.618;25.336;2023-05-14T10:35:25;7.57;;;2.53;;
30462;SDS011;17256;43.618;25.336;2023-05-14T10:37:55;3.33;;;2.30;;
30462;SDS011;17256;43.618;25.336;2023-05-14T10:40:22;3.13;;;2.50;;
30462;SDS011;17256;43.618;25.336;2023-05-14T10:42:48;4.10;;;2.63;;
30462;SDS011;17256;43.618;25.336;2023-05-14T10:45:14;2.83;;;2.57;;
30462;SDS011;17256;43.618;25.336;2023-05-14T10:47:44;3.53;;;2.30;;
30462;SDS011;17256;43.618;25.336;2023-05-14T10:50:13;5.17;;;2.70;;
30462;SDS011;17256;43.618;25.336;2023-05-14T10:52:44;2.53;;;2.33;;
30462;SDS011;17256;43.618;25.336;2023-05-14T10:55:13;2.30;;;2.00;;
30462;SDS011;17256;43.618;25.336;2023-05-14T10:57:42;3.60;;;2.43;;
30462;SDS011;17256;43.618;25.336;2023-05-14T11:00:11;3.50;;;2.47;;
30462;SDS011;17256;43.618;25.336;2023-05-14T11:02:39;5.43;;;2.17;;
30462;SDS011;17256;43.618;25.336;2023-05-14T11:05:13;3.27;;;2.50;;
30462;SDS011;17256;43.618;25.336;2023-05-14T11:07:44;2.60;;;2.27;;
30462;SDS011;17256;43.618;25.336;2023-05-14T11:10:12;6.10;;;2.63;;
30462;SDS011;17256;43.618;25.336;2023-05-14T11:12:46;3.53;;;2.20;;
30462;SDS011;17256;43.618;25.336;2023-05-14T11:15:13;2.47;;;2.27;;
30462;SDS011;17256;43.618;25.336;2023-05-14T11:17:48;2.50;;;2.30;;
30462;SDS011;17256;43.618;25.336;2023-05-14T11:31:31;2.60;;;2.40;;
30462;SDS011;17256;43.618;25.336;2023-05-14T11:33:57;2.20;;;2.10;;
30462;SDS011;17256;43.618;25.336;2023-05-14T11:36:35;4.13;;;2.77;;
30462;SDS011;17256;43.618;25.336;2023-05-14T11:39:03;3.27;;;2.97;;
30462;SDS011;17256;43.618;25.336;2023-05-14T11:41:29;2.60;;;2.40;;
30462;SDS011;17256;43.618;25.336;2023-05-14T11:43:58;2.93;;;2.20;;
30462;SDS011;17256;43.618;25.336;2023-05-14T11:46:24;3.37;;;2.50;;
30462;SDS011;17256;43.618;25.336;2023-05-14T11:48:50;2.57;;;2.10;;
30462;SDS011;17256;43.618;25.336;2023-05-14T11:51:15;5.83;;;2.17;;
30462;SDS011;17256;43.618;25.336;2023-05-14T11:53:41;3.27;;;3.03;;
30462;SDS011;17256;43.618;25.336;2023-05-14T11:56:07;4.73;;;2.90;;
30462;SDS011;17256;43.618;25.336;2023-05-14T11:58:33;2.20;;;2.00;;
30462;SDS011;17256;43.618;25.336;2023-05-14T12:00:59;2.77;;;2.57;;
30462;SDS011;17256;43.618;25.336;2023-05-14T12:03:24;4.00;;;2.37;;
30462;SDS011;17256;43.618;25.336;2023-05-14T12:05:53;2.90;;;2.27;;
30462;SDS011;17256;43.618;25.336;2023-05-14T12:08:27;2.87;;;2.57;;
30462;SDS011;17256;43.618;25.336;2023-05-14T12:10:56;4.83;;;2.27;;
30462;SDS011;17256;43.618;25.336;2023-05-14T12:13:29;2.97;;;2.77;;
30462;SDS011;17256;43.618;25.336;2023-05-14T12:15:59;3.70;;;2.73;;
30462;SDS011;17256;43.618;25.336;2023-05-14T12:18:29;4.13;;;2.20;;
30462;SDS011;17256;43.618;25.336;2023-05-14T12:21:03;5.93;;;2.63;;
30462;SDS011;17256;43.618;25.336;2023-05-14T12:23:31;2.90;;;2.13;;
30462;SDS011;17256;43.618;25.336;2023-05-14T12:26:02;3.83;;;2.40;;
30462;SDS011;17256;43.618;25.336;2023-05-14T12:28:39;4.00;;;2.97;;
30462;SDS011;17256;43.618;25.336;2023-05-14T12:31:07;3.43;;;2.73;;
30462;SDS011;17256;43.618;25.336;2023-05-14T12:36:23;2.27;;;2.07;;
30462;SDS011;17256;43.618;25.336;2023-05-14T12:38:49;3.30;;;2.63;;
30462;SDS011;17256;43.618;25.336;2023-05-14T12:41:16;3.73;;;2.57;;
30462;SDS011;17256;43.618;25.336;2023-05-14T12:43:49;2.73;;;2.53;;
30462;SDS011;17256;43.618;25.336;2023-05-14T12:46:14;3.17;;;2.50;;
30462;SDS011;17256;43.618;25.336;2023-05-14T12:48:41;2.10;;;2.00;;
30462;SDS011;17256;43.618;25.336;2023-05-14T12:51:14;2.47;;;2.17;;
30462;SDS011;17256;43.618;25.336;2023-05-14T13:00:31;2.70;;;2.50;;
30462;SDS011;17256;43.618;25.336;2023-05-14T13:02:57;5.53;;;1.93;;
30462;SDS011;17256;43.618;25.336;2023-05-14T13:05:22;3.40;;;2.23;;
30462;SDS011;17256;43.618;25.336;2023-05-14T13:07:48;2.60;;;2.40;;
30462;SDS011;17256;43.618;25.336;2023-05-14T13:10:16;4.87;;;2.37;;
30462;SDS011;17256;43.618;25.336;2023-05-14T13:12:42;3.20;;;2.73;;
30462;SDS011;17256;43.618;25.336;2023-05-14T13:15:14;3.03;;;2.50;;
30462;SDS011;17256;43.618;25.336;2023-05-14T13:33:35;2.70;;;2.40;;
30462;SDS011;17256;43.618;25.336;2023-05-14T13:36:57;2.47;;;2.23;;
30462;SDS011;17256;43.618;25.336;2023-05-14T13:39:32;2.53;;;2.10;;
30462;SDS011;17256;43.618;25.336;2023-05-14T13:41:59;2.77;;;2.47;;
30462;SDS011;17256;43.618;25.336;2023-05-14T13:44:28;3.33;;;2.30;;
30462;SDS011;17256;43.618;25.336;2023-05-14T13:46:54;3.77;;;2.70;;
30462;SDS011;17256;43.618;25.336;2023-05-14T13:49:22;4.40;;;2.23;;
30462;SDS011;17256;43.618;25.336;2023-05-14T13:51:48;2.70;;;2.50;;
30462;SDS011;17256;43.618;25.336;2023-05-14T13:57:31;2.23;;;2.03;;
30462;SDS011;17256;43.618;25.336;2023-05-14T14:04:23;3.00;;;2.80;;
30462;SDS011;17256;43.618;25.336;2023-05-14T14:06:56;2.57;;;2.27;;
30462;SDS011;17256;43.618;25.336;2023-05-14T14:09:22;2.70;;;2.50;;
30462;SDS011;17256;43.618;25.336;2023-05-14T14:11:48;3.93;;;2.10;;
30462;SDS011;17256;43.618;25.336;2023-05-14T14:14:15;3.10;;;2.27;;
30462;SDS011;17256;43.618;25.336;2023-05-14T14:16:41;4.57;;;2.33;;
30462;SDS011;17256;43.618;25.336;2023-05-14T14:19:15;3.07;;;2.30;;
30462;SDS011;17256;43.618;25.336;2023-05-14T14:27:05;3.13;;;2.17;;
30462;SDS011;17256;43.618;25.336;2023-05-14T14:29:55;2.90;;;2.57;;
30462;SDS011;17256;43.618;25.336;2023-05-14T14:32:27;2.90;;;2.70;;
30462;SDS011;17256;43.618;25.336;2023-05-14T14:39:55;2.43;;;2.23;;
30462;SDS011;17256;43.618;25.336;2023-05-14T14:52:02;2.90;;;2.20;;
30462;SDS011;17256;43.618;25.336;2023-05-14T14:56:10;3.40;;;2.20;;
30462;SDS011;17256;43.618;25.336;2023-05-14T15:08:18;2.37;;;2.03;;
30462;SDS011;17256;43.618;25.336;2023-05-14T15:10:45;2.97;;;2.40;;
30462;SDS011;17256;43.618;25.336;2023-05-14T15:13:10;3.07;;;1.93;;
30462;SDS011;17256;43.618;25.336;2023-05-14T15:18:55;4.23;;;3.30;;
30462;SDS011;17256;43.618;25.336;2023-05-14T15:21:21;6.37;;;3.23;;
30462;SDS011;17256;43.618;25.336;2023-05-14T15:23:46;2.53;;;2.33;;
30462;SDS011;17256;43.618;25.336;2023-05-14T15:26:12;3.50;;;2.20;;
30462;SDS011;17256;43.618;25.336;2023-05-14T15:28:39;3.00;;;2.63;;
30462;SDS011;17256;43.618;25.336;2023-05-14T15:31:05;4.03;;;2.40;;
30462;SDS011;17256;43.618;25.336;2023-05-14T15:33:30;2.67;;;2.30;;
30462;SDS011;17256;43.618;25.336;2023-05-14T15:35:58;4.00;;;2.40;;
30462;SDS011;17256;43.618;25.336;2023-05-14T15:38:23;2.40;;;2.20;;
30462;SDS011;17256;43.618;25.336;2023-05-14T15:40:49;2.47;;;2.27;;
30462;SDS011;17256;43.618;25.336;2023-05-14T15:43:15;3.53;;;2.60;;
30462;SDS011;17256;43.618;25.336;2023-05-14T15:46:00;2.57;;;2.37;;
30462;SDS011;17256;43.618;25.336;2023-05-14T15:52:52;3.80;;;2.73;;
30462;SDS011;17256;43.618;25.336;2023-05-14T15:55:48;4.57;;;3.50;;
30462;SDS011;17256;43.618;25.336;2023-05-14T15:58:14;4.47;;;2.87;;
30462;SDS011;17256;43.618;25.336;2023-05-14T16:00:40;4.13;;;3.83;;
30462;SDS011;17256;43.618;25.336;2023-05-14T16:03:08;3.20;;;3.00;;
30462;SDS011;17256;43.618;25.336;2023-05-14T16:05:35;2.50;;;2.30;;
30462;SDS011;17256;43.618;25.336;2023-05-14T16:08:05;3.93;;;2.57;;
30462;SDS011;17256;43.618;25.336;2023-05-14T16:10:38;5.17;;;4.00;;
30462;SDS011;17256;43.618;25.336;2023-05-14T16:13:16;4.47;;;2.20;;
30462;SDS011;17256;43.618;25.336;2023-05-14T16:15:45;3.30;;;2.80;;
30462;SDS011;17256;43.618;25.336;2023-05-14T16:18:11;2.93;;;2.63;;
30462;SDS011;17256;43.618;25.336;2023-05-14T16:20:38;3.70;;;3.33;;
30462;SDS011;17256;43.618;25.336;2023-05-14T16:23:05;3.63;;;2.80;;
30462;SDS011;17256;43.618;25.336;2023-05-14T16:25:31;10.33;;;5.33;;
30462;SDS011;17256;43.618;25.336;2023-05-14T16:27:56;5.30;;;3.27;;
30462;SDS011;17256;43.618;25.336;2023-05-14T16:30:22;13.57;;;5.17;;
30462;SDS011;17256;43.618;25.336;2023-05-14T16:32:47;10.70;;;4.40;;
30462;SDS011;17256;43.618;25.336;2023-05-14T16:35:14;7.20;;;3.20;;
30462;SDS011;17256;43.618;25.336;2023-05-14T16:37:41;10.83;;;3.57;;
30462;SDS011;17256;43.618;25.336;2023-05-14T16:40:07;6.07;;;2.70;;
30462;SDS011;17256;43.618;25.336;2023-05-14T16:42:36;3.13;;;2.83;;
30462;SDS011;17256;43.618;25.336;2023-05-14T16:45:02;3.57;;;2.90;;
30462;SDS011;17256;43.618;25.336;2023-05-14T16:47:28;19.73;;;6.00;;
30462;SDS011;17256;43.618;25.336;2023-05-14T16:49:54;4.10;;;3.07;;
30462;SDS011;17256;43.618;25.336;2023-05-14T16:52:35;2.87;;;2.67;;
30462;SDS011;17256;43.618;25.336;2023-05-14T16:56:25;2.33;;;2.10;;
30462;SDS011;17256;43.618;25.336;2023-05-14T16:59:15;2.10;;;2.00;;
30462;SDS011;17256;43.618;25.336;2023-05-14T17:05:57;5.50;;;2.50;;
30462;SDS011;17256;43.618;25.336;2023-05-14T17:08:22;2.50;;;2.30;;
30462;SDS011;17256;43.618;25.336;2023-05-14T17:10:48;2.43;;;2.33;;
30462;SDS011;17256;43.618;25.336;2023-05-14T17:13:14;4.13;;;2.40;;
30462;SDS011;17256;43.618;25.336;2023-05-14T17:15:39;3.87;;;2.53;;
30462;SDS011;17256;43.618;25.336;2023-05-14T17:18:06;2.70;;;2.50;;
30462;SDS011;17256;43.618;25.336;2023-05-14T17:20:35;2.80;;;2.37;;
30462;SDS011;17256;43.618;25.336;2023-05-14T17:23:04;3.43;;;2.00;;
30462;SDS011;17256;43.618;25.336;2023-05-14T17:25:46;3.43;;;2.80;;
30462;SDS011;17256;43.618;25.336;2023-05-14T17:28:15;4.07;;;3.20;;
30462;SDS011;17256;43.618;25.336;2023-05-14T17:30:49;4.07;;;3.67;;
30462;SDS011;17256;43.618;25.336;2023-05-14T17:33:19;5.10;;;3.20;;
30462;SDS011;17256;43.618;25.336;2023-05-14T17:35:46;3.20;;;2.90;;
30462;SDS011;17256;43.618;25.336;2023-05-14T17:38:12;2.90;;;2.60;;
30462;SDS011;17256;43.618;25.336;2023-05-14T17:40:38;2.60;;;2.40;;
30462;SDS011;17256;43.618;25.336;2023-05-14T17:43:05;4.17;;;2.97;;
30462;SDS011;17256;43.618;25.336;2023-05-14T17:45:32;4.60;;;2.60;;
30462;SDS011;17256;43.618;25.336;2023-05-14T17:47:58;2.43;;;2.17;;
30462;SDS011;17256;43.618;25.336;2023-05-14T17:50:32;4.13;;;2.33;;
30462;SDS011;17256;43.618;25.336;2023-05-14T17:52:58;3.00;;;2.70;;
30462;SDS011;17256;43.618;25.336;2023-05-14T17:55:33;2.70;;;2.33;;
30462;SDS011;17256;43.618;25.336;2023-05-14T17:58:12;2.33;;;1.93;;
30462;SDS011;17256;43.618;25.336;2023-05-14T18:00:43;4.23;;;3.13;;
30462;SDS011;17256;43.618;25.336;2023-05-14T18:10:54;3.80;;;2.63;;